Northwest Florida Beaches International Airport

KECP · Floryda, Stany Zjednoczone

Historia METAR KECP · Northwest Florida Beaches International Airport

Poniżej widzisz METAR-y z ostatnich kilku dni. Wybierz rok, aby przeglądać starsze METAR-y, począwszy od roku 2007.

29 maja 2024

Czas Kod Pogoda Temp. Widoczność Sufit Wiatr METAR/SPECI
08:53
V
29 °C 10 mi - 360° 360° 6 kt METAR KECP 291353Z 36006KT 10SM CLR 29/18 A3010 RMK AO1 SLP204 T02890178
07:53
V
26 °C 10 mi - 010° 010° 4 kt METAR KECP 291253Z 01004KT 10SM CLR 26/19 A3009 RMK AO1 SLP199 T02560189
06:53
V
23 °C 10 mi - 330° 330° 4 kt METAR KECP 291153Z 33004KT 10SM CLR 23/19 A3008 RMK AO1 SLP196 T02280189 10228 20200 53022
05:53
V
22 °C 10 mi - 330° 330° 5 kt METAR KECP 291053Z 33005KT 10SM CLR 22/18 A3006 RMK AO1 SLP189 T02170183
04:53
V
22 °C 10 mi - 350° 350° 4 kt METAR KECP 290953Z AUTO 35004KT 10SM CLR 22/18 A3003 RMK AO1 SLP179 T02170183
03:53
V
21 °C 10 mi - 340° 340° 4 kt METAR KECP 290853Z AUTO 34004KT 10SM CLR 21/19 A3001 RMK AO1 SLP174 T02110189 53003
02:53
V
21 °C 10 mi - 360° 360° 0 kt METAR KECP 290753Z AUTO 00000KT 10SM CLR 21/19 A3000 RMK AO1 SLP169 T02060189
01:53
V
21 °C 10 mi - 320° 320° 4 kt METAR KECP 290653Z AUTO 32004KT 10SM CLR 21/19 A3001 RMK AO1 SLP173 T02060189
00:53
V
21 °C 10 mi - 360° 360° 0 kt METAR KECP 290553Z AUTO 00000KT 10SM CLR 21/20 A3001 RMK AO1 SLP171 T02110200 10306 20211 403560211 58004

28 maja 2024

Czas Kod Pogoda Temp. Widoczność Sufit Wiatr METAR/SPECI
23:53
V
22 °C 10 mi - 360° 360° 0 kt METAR KECP 290453Z AUTO 00000KT 10SM CLR 22/20 A3001 RMK AO1 SLP174 T02170200
22:53
V
23 °C 10 mi - 360° 360° 0 kt METAR KECP 290353Z AUTO 00000KT 10SM CLR 23/22 A3003 RMK AO1 SLP179 T02330217
21:53
V
25 °C 10 mi - 360° 360° 0 kt METAR KECP 290253Z AUTO 00000KT 10SM CLR 25/23 A3002 RMK AO1 SLP176 T02500228 53010
20:53
V
27 °C 10 mi - 360° 360° 0 kt METAR KECP 290153Z 00000KT 10SM CLR 27/23 A3000 RMK AO1 SLP171 T02670228
19:53
V
28 °C 10 mi - 240° 240° 3 kt METAR KECP 290053Z 24003KT 10SM CLR 28/22 A3000 RMK AO1 SLP168 T02830222
18:53
V
31 °C 10 mi - 240° 240° 7 kt METAR KECP 282353Z 24007KT 10SM CLR 31/21 A2999 RMK AO1 SLP165 T03060211 10356 20306 53008
17:53
V
33 °C 10 mi - 220° 220° 8 kt METAR KECP 282253Z 22008KT 10SM CLR 33/22 A2996 RMK AO1 SLP156 T03280217
16:53
V
33 °C 10 mi - 220° 220° 8 kt METAR KECP 282153Z 22008KT 10SM CLR 33/23 A2996 RMK AO1 SLP155 T03280228
16:20
V
33 °C 10 mi - 210° 210° 8 kt METAR KECP 282120Z 21008KT 10SM CLR 33/22 A2996 RMK AO1 T03280222
15:53
V
36 °C 10 mi - Var Var 5 kt METAR KECP 282053Z VRB05KT 10SM CLR 36/16 A2996 RMK AO1 SLP157 T03560161 58015
14:53
V
36 °C 10 mi - Var Var 4 kt METAR KECP 281953Z VRB04KT 10SM CLR 36/19 A2998 RMK AO1 SLP161 T03560189
13:53
V
34 °C 10 mi - 320° 320° 6 - 14 kt METAR KECP 281853Z 32006G14KT 10SM CLR 34/19 A3001 RMK AO1 SLP171 T03440189
12:53
V
34 °C 10 mi - Var Var 3 kt METAR KECP 281753Z VRB03KT 10SM SCT050 34/18 A3001 RMK AO1 SLP172 T03390183 10339 20244 58008
11:53
V
33 °C 10 mi - Var Var 3 kt METAR KECP 281653Z VRB03KT 10SM FEW047 33/20 A3002 RMK AO1 SLP175 T03330200
10:53
V
32 °C 10 mi - 320° 320° 5 kt METAR KECP 281553Z 32005KT 10SM CLR 32/22 A3003 RMK AO1 SLP178 T03170217
09:53
V
31 °C 10 mi - 360° 360° 5 kt METAR KECP 281453Z 36005KT 10SM CLR 31/22 A3003 RMK AO1 SLP180 T03110222 53005
09:13
V
29 °C 10 mi - 340° 340° 6 kt METAR KECP 281413Z 34006KT 10SM CLR 29/22 A3003 RMK AO1 T02940222
08:53
V
29 °C 10 mi - 340° 340° 7 kt METAR KECP 281353Z 34007KT 10SM CLR 29/22 A3002 RMK AO1 SLP176 T02890222
07:53
V
27 °C 10 mi - 340° 340° 4 kt METAR KECP 281253Z 34004KT 10SM CLR 27/22 A3002 RMK AO1 SLP175 T02670222
06:53
V
24 °C 6 mi - 360° 360° 0 kt METAR KECP 281153Z 00000KT 6SM BR CLR 24/23 A3002 RMK AO1 SLP175 T02440228 10272 20228 51020
05:53
V
23 °C 6 mi - 300° 300° 3 kt METAR KECP 281053Z 30003KT 6SM R16/1600VP6000FT BR CLR 23/23 A3000 RMK AO1 SLP170 T02280228
05:39
I
23 °C 1¼ mi - 280° 280° 3 kt METAR KECP 281039Z AUTO 28003KT 1 1/4SM R16/1000VP6000FT BR FEW003 23/23 A3000 RMK AO1 VIS 1/2V3 T02330233
05:26
L
24 °C ¾ mi 300 ft 320° 320° 3 kt METAR KECP 281026Z AUTO 32003KT 3/4SM R16/1200V5500FT BR VV003 24/23 A2999 RMK AO1 T02390233
05:22
I
24 °C 1¾ mi - 360° 360° 0 kt METAR KECP 281022Z AUTO 00000KT 1 3/4SM R16/2000VP6000FT BR CLR 24/23 A2999 RMK AO1 VIS 3/4V5 T02390233
04:53
V
24 °C 6 mi - 310° 310° 3 kt METAR KECP 280953Z AUTO 31003KT 6SM BR SCT015 24/23 A2998 RMK AO1 SLP162 T02390233
04:35
V
23 °C 10 mi - 300° 300° 4 kt METAR KECP 280935Z AUTO 30004KT 10SM R16/1600VP6000FT SCT007 23/23 A2998 RMK AO1 T02330228
04:27
I
23 °C 4 mi 800 ft 300° 300° 4 kt METAR KECP 280927Z AUTO 30004KT 4SM R16/2000V3000FT BR BKN008 23/23 A2998 RMK AO1 T02330233
04:17
L
24 °C ¼ mi 700 ft 360° 360° 0 kt METAR KECP 280917Z AUTO 00000KT 1/4SM R16/3000VP6000FT FG VV007 24/24 A2997 RMK AO1 T02440239
04:09
L
24 °C ½ mi 800 ft 360° 360° 0 kt METAR KECP 280909Z AUTO 00000KT 1/2SM R16/2000VP6000FT FG VV008 24/23 A2997 RMK AO1 T02390233
04:01
I
24 °C 1 mi 800 ft 360° 360° 0 kt METAR KECP 280901Z AUTO 00000KT 1SM R16/1600V4500FT BR VV008 24/23 A2997 RMK AO1 T02440233
03:58
I
24 °C 2 mi - 360° 360° 0 kt METAR KECP 280858Z AUTO 00000KT 2SM R16/1600V4000FT BR FEW009 24/23 A2996 RMK AO1 T02390233
02:53
V
26 °C 8 mi - 360° 360° 0 kt METAR KECP 280753Z AUTO 00000KT 8SM CLR 26/25 A2996 RMK AO1 SLP155 T02560250
02:32
V
27 °C 10 mi - 360° 360° 0 kt METAR KECP 280732Z AUTO 00000KT 10SM FEW010 SCT015 27/26 A2996 RMK AO1 T02670256
02:23
M
27 °C 10 mi 1.600 ft 360° 360° 0 kt METAR KECP 280723Z AUTO 00000KT 10SM SCT011 BKN016 27/26 A2996 RMK AO1 T02670256
01:59
M
27 °C 10 mi 1.400 ft 240° 240° 3 kt METAR KECP 280659Z AUTO 24003KT 10SM BKN014 BKN022 27/26 A2996 RMK AO1 T02670256
01:43
M
27 °C 10 mi 1.400 ft 200° 200° 3 kt METAR KECP 280643Z AUTO 20003KT 10SM BKN014 BKN019 BKN025 27/26 A2996 RMK AO1 T02720256
01:18
V
27 °C 10 mi 3.300 ft 190° 190° 4 kt METAR KECP 280618Z AUTO 19004KT 10SM SCT012 SCT021 BKN033 27/26 A2997 RMK AO1 T02670256
01:11
M
27 °C 10 mi 1.400 ft 190° 190° 3 kt METAR KECP 280611Z AUTO 19003KT 10SM SCT010 BKN014 BKN021 27/26 A2997 RMK AO1 T02720256
00:53
M
27 °C 10 mi 1.800 ft 230° 230° 3 kt METAR KECP 280553Z AUTO 23003KT 10SM SCT013 BKN018 BKN027 27/26 A2997 RMK AO1 SLP159 T02720256 10283 20267 403110267 50004

27 maja 2024

Czas Kod Pogoda Temp. Widoczność Sufit Wiatr METAR/SPECI
23:53
M
27 °C 10 mi 2.800 ft 220° 220° 4 kt METAR KECP 280453Z AUTO 22004KT 10SM SCT019 BKN028 27/26 A2997 RMK AO1 SLP160 T02720256
22:53
V
27 °C 10 mi - 210° 210° 4 kt METAR KECP 280353Z AUTO 21004KT 10SM SCT017 27/26 A2997 RMK AO1 SLP160 T02720256
21:53
V
27 °C 10 mi - 170° 170° 4 kt METAR KECP 280253Z AUTO 17004KT 10SM CLR 27/26 A2996 RMK AO1 SLP155 T02670256 50017
21:21
V
27 °C 10 mi - 180° 180° 4 kt METAR KECP 280221Z 18004KT 10SM SCT095 27/25 A2996 RMK AO1 T02720250
20:53
M
28 °C 10 mi 2.000 ft 240° 240° 4 kt METAR KECP 280153Z 24004KT 10SM BKN020 BKN090 28/26 A2997 RMK AO1 SLP157 T02780256
19:53
M
28 °C 10 mi 1.700 ft 210° 210° 6 kt METAR KECP 280053Z 21006KT 10SM BKN017 BKN026 28/26 A2994 RMK AO1 SLP149 T02780256
18:53
V
28 °C 10 mi - 200° 200° 12 kt METAR KECP 272353Z 20012KT 10SM SCT019 SCT027 28/24 A2991 RMK AO1 SLP138 T02830244 10311 20283 55003
17:53
M
29 °C 10 mi 2.700 ft 210° 210° 11 kt METAR KECP 272253Z 21011KT 10SM SCT019 BKN027 29/24 A2989 RMK AO1 SLP131 T02940244
16:53
V
30 °C 10 mi 3.500 ft 200° 200° 14 kt METAR KECP 272153Z 20014KT 10SM SCT021 SCT027 BKN035 30/25 A2991 RMK AO1 SLP139 T03000250
15:53
V
31 °C 10 mi 3.500 ft 210° 210° 14 kt METAR KECP 272053Z 21014KT 10SM SCT024 BKN035 31/25 A2992 RMK AO1 SLP141 T03060250 56013
14:53
V
31 °C 10 mi 3.800 ft 190° 190° 15 - 21 kt METAR KECP 271953Z 19015G21KT 10SM SCT020 SCT030 BKN038 31/26 A2992 RMK AO1 SLP143 T03060256
13:53
M
31 °C 10 mi 2.200 ft 200° 200° 14 kt METAR KECP 271853Z 20014KT 10SM BKN022 BKN029 31/25 A2995 RMK AO1 SLP152 T03060250
12:53
M
30 °C 10 mi 3.000 ft 180° 180° 12 kt METAR KECP 271753Z 18012KT 10SM SCT024 BKN030 30/24 A2996 RMK AO1 SLP154 T03000244 10311 20272 58007
11:53
M
29 °C 10 mi 3.000 ft 160° 160° 12 kt METAR KECP 271653Z 16012KT 10SM SCT024 BKN030 29/24 A2997 RMK AO1 SLP159 T02940244
10:53
M
30 °C 10 mi 2.400 ft 210° 210° 12 - 21 kt METAR KECP 271553Z 21012G21KT 10SM BKN024 BKN032 30/24 A2998 RMK AO1 SLP163 T03000244
09:53
M
30 °C 10 mi 2.400 ft 200° 200° 12 - 20 kt METAR KECP 271453Z 20012G20KT 10SM BKN024 30/24 A2998 RMK AO1 SLP161 T03000239 51014
08:53
M
30 °C 10 mi 2.400 ft 210° 210° 10 kt METAR KECP 271353Z 21010KT 10SM BKN024 30/24 A2997 RMK AO1 SLP159 T03000244
08:35
M
29 °C 10 mi 2.400 ft 210° 210° 9 kt METAR KECP 271335Z 21009KT 10SM SCT017 BKN024 BKN037 29/25 A2997 RMK AO1 T02890250
07:53
V
28 °C 10 mi - 220° 220° 10 kt METAR KECP 271253Z 22010KT 10SM SCT018 28/25 A2995 RMK AO1 SLP153 T02830250
06:53
V
27 °C 10 mi - 190° 190° 7 kt METAR KECP 271153Z 19007KT 10SM FEW039 27/25 A2994 RMK AO1 SLP147 T02720250 10272 20267 53020
06:23
V
27 °C 10 mi - 200° 200° 7 kt METAR KECP 271123Z 20007KT 10SM FEW016 SCT022 27/25 A2992 RMK AO1 T02670250
05:53
M
27 °C 10 mi 1.800 ft 220° 220° 4 kt METAR KECP 271053Z 22004KT 10SM SCT013 BKN018 27/25 A2991 RMK AO1 SLP137 T02670250
05:27
V
27 °C 10 mi - 190° 190° 7 kt METAR KECP 271027Z AUTO 19007KT 10SM SCT013 SCT019 27/25 A2989 RMK AO1 T02670250
04:53
M
27 °C 10 mi 1.500 ft 190° 190° 6 kt METAR KECP 270953Z AUTO 19006KT 10SM BKN015 BKN026 27/25 A2988 RMK AO1 SLP128 T02670250
03:53
V
27 °C 10 mi - 190° 190° 10 kt METAR KECP 270853Z AUTO 19010KT 10SM FEW012 SCT018 SCT024 27/25 A2988 RMK AO1 SLP127 T02670250 58002
02:53
M
27 °C 10 mi 2.200 ft 180° 180° 10 kt METAR KECP 270753Z AUTO 18010KT 10SM SCT013 OVC022 27/25 A2988 RMK AO1 SLP128 T02720250
01:53
M
27 °C 10 mi 1.400 ft 180° 180° 8 kt METAR KECP 270653Z AUTO 18008KT 10SM BKN014 BKN018 27/25 A2988 RMK AO1 SLP129 T02720250
00:53
M
27 °C 10 mi 1.400 ft 180° 180° 10 kt METAR KECP 270553Z AUTO 18010KT 10SM BKN014 BKN022 OVC029 27/25 A2990 RMK AO1 SLP134 T02720250 10278 20267 403110222 56009
Zgłoś zmianę